Meeker, CO

11:02 AM MDT on October 23, 2014 (GMT -0600)
Meeker | Change Station
CLOSE
Current Station
Airport
Location: Meeker,
Elevation: 6421 ft
Nearby Weather Stations

Elev 6421 ft 40.05 °N, 107.89 °W | Updated 9 minutes ago

Clear
Clear
53 °F
Feels Like 53 °F
N
0
Wind Variable Wind from North

Today
High -- | Low -- °F
--% Chance of Precip.
Yesterday
High -- | Low -- °F
Precip. -- in
7:30 AM 6:20 PM
Waning Crescent, 0% visible
Pressure 30.18 in
Visibility 10.0 miles
Clouds Clear
Dew Point 37 °F
Humidity 55%
Rainfall 0.00 in
Snow Depth Not available.
UV 4 out of 12
Pollen 1.40 out of 12
Air Quality Not available.
Flu Activity Sporadic
METAR KEEO 231653Z AUTO 00000KT 10SM CLR 12/03 A3030 RMK AO2 SLP220 T01170028

More Conditions Fewer Conditions

Pressure 30.18 in
Visibility 10.0 miles
Clouds Clear
Dew Point 37 °F
Humidity 55%
Rainfall 0.00 in
Snow Depth Not available.
UV 4 out of 12
Pollen 1.40 out of 12
Air Quality Not available.
Flu Activity Sporadic
METAR KEEO 231653Z AUTO 00000KT 10SM CLR 12/03 A3030 RMK AO2 SLP220 T01170028

More Conditions Fewer Conditions

10-Day Weather Forecast

Almanac

Astronomy

Oct. 23, 2014 Rise Set
Actual Time 7:30 AM MDT 6:20 PM MDT
Civil Twilight 7:03 AM MDT 6:48 PM MDT
Nautical Twilight 6:31 AM MDT 7:19 PM MDT
Astronomical Twilight 6:00 AM MDT 7:51 PM MDT
Moon 7:13 AM MDT 6:24 PM MDT
Length of Visible Light 11h 44m
Length of Day
10h 49m
Tomorrow will be 2m 27s shorter.
Waning Crescent, 0% of the Moon is Illuminated
Today
Waning Crescent
Oct 23
New
Oct 30
First Quarter
Nov 6
Full
Nov 14
Last Quarter

Today's Extremes

State Highs State Lows

Community

WunderPhotos

Upload Photos

1,764,311 photos uploaded!

WunderBlogs® & News

Nearby

Snow Depth

Station Depth Elevation
Ripple Creek 2 in 10340 ft
Bison Lake 0 in 10880 ft
Trapper Lake 0 in 9700 ft
Bear RIver 0 in 9080 ft
Rabbit Ears 1 in 9400 ft

Earthquake Activity

City Distance Mag. Time & Date
No recent earthquake activity has been reported nearby.
Minimum magnitude displayed is 2.5.

Coastal Water Temperatures

Place Temperature
No Stations Reporting

Nearby Weather Stations